Time;durP1;ratioP1;P1;durP2;ratioP2;P2;SDS_P1;SDS_P2;PMS_P1;PMS_P2;Temp;Humidity;BMP_temperature;BMP_pressure;BME280_temperature;BME280_humidity;BME280_pressure;Samples;Min_cycle;Max_cycle;Signal;HPM_P1;HPM_P2
2023/06/27 00:00:45;;;;;;;8.18;6.85;;;;;;;19.77;100.00;98208.97;2584788;28;20045;-90
2023/06/27 00:02:21;;;;;;;10.65;7.60;;;;;;;19.56;100.00;98209.53;2583573;28;20057;-90
2023/06/27 00:03:37;;;;;;;9.68;6.97;;;;;;;19.67;100.00;98197.28;2584984;28;20050;-91
2023/06/27 00:04:52;;;;;;;9.05;6.72;;;;;;;19.74;100.00;98206.53;2586090;28;20049;-90
2023/06/27 00:06:08;;;;;;;9.48;6.40;;;;;;;19.74;100.00;98203.88;2584515;28;20217;-90
2023/06/27 00:07:27;;;;;;;8.23;6.90;;;;;;;19.72;100.00;98203.97;2584182;28;20077;-90
2023/06/27 00:08:45;;;;;;;10.25;7.43;;;;;;;19.69;100.00;98198.91;2584291;28;20088;-91
2023/06/27 00:10:02;;;;;;;8.52;6.63;;;;;;;19.59;100.00;98204.00;2583754;28;20494;-91
2023/06/27 00:11:17;;;;;;;9.60;6.95;;;;;;;19.57;100.00;98205.06;2583621;28;20077;-90
2023/06/27 00:12:33;;;;;;;8.98;6.68;;;;;;;19.47;100.00;98202.19;2583114;28;20521;-91
2023/06/27 00:13:49;;;;;;;9.23;6.88;;;;;;;19.62;100.00;98203.78;2582967;28;20061;-91
2023/06/27 00:15:05;;;;;;;8.45;6.78;;;;;;;19.54;100.00;98202.63;2586367;28;20054;-91
2023/06/27 00:16:21;;;;;;;8.57;6.80;;;;;;;19.51;100.00;98200.19;2583499;28;20537;-90
2023/06/27 00:17:37;;;;;;;7.93;7.05;;;;;;;19.69;100.00;98198.03;2588535;28;20057;-90
2023/06/27 00:18:52;;;;;;;10.15;7.68;;;;;;;19.61;100.00;98206.53;2581104;28;20053;-91
2023/06/27 00:20:12;;;;;;;8.82;7.35;;;;;;;19.65;100.00;98212.50;2584715;28;20054;-91
2023/06/27 00:21:29;;;;;;;10.85;7.55;;;;;;;19.16;100.00;98221.03;2585068;28;20464;-89
2023/06/27 00:22:46;;;;;;;8.65;7.28;;;;;;;19.30;100.00;98222.78;2585288;28;20056;-90
2023/06/27 00:24:03;;;;;;;11.48;7.80;;;;;;;19.56;100.00;98220.16;2583924;28;20050;-88
2023/06/27 00:25:19;;;;;;;9.52;7.55;;;;;;;19.57;100.00;98224.50;2585951;28;20058;-90
2023/06/27 00:26:35;;;;;;;9.23;7.78;;;;;;;19.38;100.00;98232.88;2584584;28;20129;-92
2023/06/27 00:27:53;;;;;;;9.32;7.53;;;;;;;19.41;100.00;98237.09;2584481;28;20492;-89
2023/06/27 00:29:08;;;;;;;11.70;8.20;;;;;;;19.41;100.00;98250.38;2583609;28;20078;-93
2023/06/27 00:30:24;;;;;;;11.27;7.68;;;;;;;19.10;100.00;98255.09;2583632;28;20055;-88
2023/06/27 00:31:40;;;;;;;10.23;8.20;;;;;;;19.12;100.00;98247.88;2583563;28;20046;-90
2023/06/27 00:32:57;;;;;;;10.60;7.75;;;;;;;19.28;100.00;98240.63;2584373;28;20061;-90
2023/06/27 00:34:12;;;;;;;8.65;7.68;;;;;;;19.42;100.00;98247.63;2585687;28;20050;-92
2023/06/27 00:35:32;;;;;;;10.40;8.10;;;;;;;19.60;100.00;98240.22;2583859;28;20053;-90
2023/06/27 00:36:48;;;;;;;10.05;8.10;;;;;;;19.57;100.00;98252.84;2584729;28;20142;-91
2023/06/27 00:38:03;;;;;;;11.15;7.72;;;;;;;19.38;100.00;98253.25;2585258;28;20053;-90
2023/06/27 00:39:19;;;;;;;9.90;7.47;;;;;;;19.62;100.00;98251.59;2582558;28;20057;-90
2023/06/27 00:40:34;;;;;;;10.45;7.18;;;;;;;19.47;100.00;98255.28;2582908;28;20149;-91
2023/06/27 00:41:51;;;;;;;10.18;7.75;;;;;;;19.36;100.00;98249.84;2582545;28;20637;-90
2023/06/27 00:43:07;;;;;;;12.52;7.53;;;;;;;19.33;100.00;98246.44;2583752;28;20453;-90
2023/06/27 00:44:22;;;;;;;10.20;7.45;;;;;;;19.47;100.00;98248.16;2585533;28;20046;-91
2023/06/27 00:45:38;;;;;;;11.80;8.57;;;;;;;19.59;100.00;98250.94;2583803;28;20065;-90
2023/06/27 00:46:53;;;;;;;9.52;8.15;;;;;;;19.56;100.00;98252.00;2584837;28;20042;-90
2023/06/27 00:48:12;;;;;;;9.65;7.65;;;;;;;19.67;100.00;98251.28;2585190;28;20054;-90
2023/06/27 00:49:28;;;;;;;10.90;8.15;;;;;;;19.51;100.00;98248.81;2583463;28;20058;-91
2023/06/27 00:50:45;;;;;;;9.65;8.20;;;;;;;19.42;100.00;98238.84;2588317;28;20471;-91
2023/06/27 00:52:01;;;;;;;12.77;8.25;;;;;;;19.50;100.00;98239.13;2587696;28;20041;-90
2023/06/27 00:53:17;;;;;;;9.60;8.23;;;;;;;19.59;100.00;98241.19;2582720;28;20072;-90
2023/06/27 00:54:33;;;;;;;9.43;7.50;;;;;;;19.56;100.00;98236.09;2583503;28;20116;-91
2023/06/27 00:55:48;;;;;;;11.52;8.27;;;;;;;19.56;100.00;98236.09;2582920;28;20421;-90
2023/06/27 00:57:04;;;;;;;10.90;8.18;;;;;;;19.33;100.00;98237.63;2583916;28;20051;-90
2023/06/27 00:58:20;;;;;;;10.57;7.78;;;;;;;19.45;100.00;98238.63;2582186;28;20606;-90
2023/06/27 00:59:37;;;;;;;11.63;7.75;;;;;;;19.47;100.00;98239.34;2585510;28;20165;-90
2023/06/27 01:00:53;;;;;;;10.40;7.65;;;;;;;19.40;100.00;98241.56;2583509;28;20061;-90
2023/06/27 01:02:09;;;;;;;10.00;7.78;;;;;;;19.54;100.00;98251.25;2583673;28;20046;-92
2023/06/27 01:03:24;;;;;;;10.38;8.20;;;;;;;19.44;100.00;98248.38;2583422;28;20053;-90
2023/06/27 01:04:40;;;;;;;8.10;7.10;;;;;;;19.47;100.00;98253.47;2581807;28;20477;-91
2023/06/27 01:05:56;;;;;;;11.10;8.20;;;;;;;19.61;100.00;98255.19;2582636;28;20924;-90
2023/06/27 01:07:23;;;;;;;10.25;7.85;;;;;;;19.64;100.00;98262.13;2583407;28;20135;-90
2023/06/27 01:08:42;;;;;;;10.02;7.65;;;;;;;19.49;100.00;98269.31;2583421;28;20477;-91
2023/06/27 01:10:07;;;;;;;9.35;7.72;;;;;;;19.53;100.00;98262.81;2583728;28;20041;-90
2023/06/27 01:11:32;;;;;;;9.68;7.90;;;;;;;19.43;100.00;98267.91;2585042;28;20343;-91
2023/06/27 01:13:08;;;;;;;9.63;8.05;;;;;;;19.35;100.00;98259.63;2583526;28;21001;-92
2023/06/27 01:14:25;;;;;;;8.70;7.75;;;;;;;19.34;100.00;98264.06;2584439;28;20192;-90
2023/06/27 01:15:41;;;;;;;11.57;8.18;;;;;;;19.41;100.00;98263.66;2582677;28;20513;-91
2023/06/27 01:16:57;;;;;;;9.18;7.60;;;;;;;19.42;100.00;98268.88;2584707;28;20157;-92
2023/06/27 01:18:15;;;;;;;10.95;8.25;;;;;;;19.37;100.00;98270.13;2582997;28;20587;-91
2023/06/27 01:19:32;;;;;;;11.10;8.77;;;;;;;19.46;100.00;98265.03;2584341;28;20053;-90
2023/06/27 01:20:49;;;;;;;10.05;8.02;;;;;;;19.45;100.00;98271.31;2584508;28;20046;-91
2023/06/27 01:22:09;;;;;;;12.50;8.27;;;;;;;19.46;100.00;98269.53;2585658;28;20077;-91
2023/06/27 01:23:33;;;;;;;14.30;8.20;;;;;;;19.41;100.00;98261.00;2585347;28;20500;-91
2023/06/27 01:24:49;;;;;;;11.77;7.60;;;;;;;19.31;100.00;98264.28;2584631;28;20406;-89
2023/06/27 01:26:07;;;;;;;8.93;7.15;;;;;;;19.28;100.00;98269.81;2584247;28;20065;-90
2023/06/27 01:27:22;;;;;;;10.23;7.45;;;;;;;19.29;100.00;98274.16;2595006;28;20413;-90
2023/06/27 01:28:38;;;;;;;12.25;7.78;;;;;;;19.37;100.00;98272.78;2596771;28;20057;-89
2023/06/27 01:29:54;;;;;;;10.50;7.10;;;;;;;19.46;100.00;98272.16;2594291;28;20050;-91
2023/06/27 01:31:38;;;;;;;10.20;7.20;;;;;;;19.54;100.00;98272.50;2595026;28;20073;-91
2023/06/27 01:33:04;;;;;;;9.45;6.55;;;;;;;19.56;100.00;98267.09;2592371;28;20082;-90
2023/06/27 01:34:31;;;;;;;8.88;7.18;;;;;;;19.51;100.00;98272.69;2589711;28;20045;-90
2023/06/27 01:35:57;;;;;;;7.32;6.30;;;;;;;19.50;100.00;98278.13;2584640;28;20141;-90
2023/06/27 01:37:28;;;;;;;10.15;6.72;;;;;;;19.45;100.00;98283.75;2584094;28;20496;-91
2023/06/27 01:38:50;;;;;;;9.23;6.40;;;;;;;19.39;100.00;98281.50;2583738;28;20128;-89
2023/06/27 01:40:10;;;;;;;13.27;7.47;;;;;;;19.56;100.00;98278.56;2583190;28;20501;-89
2023/06/27 01:41:28;;;;;;;9.07;6.68;;;;;;;19.55;100.00;98282.16;2583090;28;20050;-90
2023/06/27 01:42:49;;;;;;;7.60;6.55;;;;;;;19.49;100.00;98287.88;2583849;28;20100;-90
2023/06/27 01:44:06;;;;;;;7.35;6.40;;;;;;;19.44;100.00;98290.00;2584701;28;20058;-90
2023/06/27 01:45:23;;;;;;;7.05;6.10;;;;;;;19.55;100.00;98281.31;2583909;28;20064;-90
2023/06/27 01:46:39;;;;;;;10.18;6.43;;;;;;;19.57;100.00;98288.22;2585555;28;20042;-92
2023/06/27 01:47:57;;;;;;;8.98;5.75;;;;;;;19.44;100.00;98287.34;2587282;28;20544;-91
2023/06/27 01:49:14;;;;;;;7.03;5.70;;;;;;;19.40;100.00;98285.84;2583168;28;20050;-89
2023/06/27 01:50:30;;;;;;;12.10;6.25;;;;;;;19.40;100.00;98289.38;2585411;28;20050;-90
2023/06/27 01:51:47;;;;;;;8.63;6.22;;;;;;;19.45;100.00;98286.41;2583398;28;20476;-89
2023/06/27 01:53:02;;;;;;;9.68;6.35;;;;;;;19.39;100.00;98285.00;2582123;28;20449;-89
2023/06/27 01:54:18;;;;;;;7.90;6.47;;;;;;;19.38;100.00;98285.97;2584550;28;20096;-89
2023/06/27 01:55:33;;;;;;;9.32;5.65;;;;;;;19.48;100.00;98284.38;2582372;28;20337;-90
2023/06/27 01:56:49;;;;;;;7.93;6.05;;;;;;;19.44;100.00;98290.00;2584229;28;20060;-93
2023/06/27 01:58:05;;;;;;;8.65;6.15;;;;;;;19.27;100.00;98291.97;2583507;28;20058;-90
2023/06/27 01:59:20;;;;;;;7.45;5.82;;;;;;;19.09;100.00;98279.91;2584626;28;20473;-90
2023/06/27 02:00:36;;;;;;;6.72;6.03;;;;;;;19.07;100.00;98282.69;2584204;28;20065;-90
2023/06/27 02:01:52;;;;;;;10.80;6.20;;;;;;;19.11;100.00;98283.31;2583044;28;20062;-90
2023/06/27 02:03:07;;;;;;;13.05;6.13;;;;;;;19.17;100.00;98285.59;2581204;28;20065;-89
2023/06/27 02:04:22;;;;;;;7.22;6.15;;;;;;;19.02;100.00;98280.34;2581694;28;20690;-90
2023/06/27 02:05:38;;;;;;;6.75;5.88;;;;;;;19.14;100.00;98285.81;2583188;28;20057;-90
2023/06/27 02:06:54;;;;;;;7.43;5.93;;;;;;;19.16;100.00;98287.38;2581874;28;20046;-90
2023/06/27 02:08:09;;;;;;;8.98;5.55;;;;;;;19.18;100.00;98281.97;2584327;28;20091;-90
2023/06/27 02:09:24;;;;;;;6.32;5.72;;;;;;;19.23;100.00;98285.16;2584202;28;20456;-89
2023/06/27 02:10:40;;;;;;;6.60;5.75;;;;;;;19.29;100.00;98289.22;2581949;28;20133;-89
2023/06/27 02:11:56;;;;;;;9.32;5.78;;;;;;;19.27;100.00;98297.28;2584359;28;20050;-90
2023/06/27 02:13:12;;;;;;;8.30;5.95;;;;;;;19.33;100.00;98290.72;2583692;28;20464;-88
2023/06/27 02:14:27;;;;;;;5.57;5.00;;;;;;;19.13;100.00;98292.03;2583560;28;20105;-90
2023/06/27 02:15:43;;;;;;;6.70;5.40;;;;;;;19.31;100.00;98296.13;2584197;28;20101;-92
2023/06/27 02:16:58;;;;;;;8.07;5.78;;;;;;;19.25;100.00;98291.22;2583211;28;20072;-90
2023/06/27 02:18:14;;;;;;;7.30;5.78;;;;;;;19.11;100.00;98293.94;2581738;28;20121;-90
2023/06/27 02:19:30;;;;;;;9.32;5.57;;;;;;;19.13;100.00;98297.34;2582342;28;20053;-90
2023/06/27 02:20:45;;;;;;;11.43;5.88;;;;;;;18.97;100.00;98287.69;2585026;28;20054;-89
2023/06/27 02:22:01;;;;;;;7.40;5.55;;;;;;;18.96;100.00;98293.97;2582424;28;20054;-89
2023/06/27 02:23:16;;;;;;;8.55;5.60;;;;;;;19.00;100.00;98292.84;2584874;28;20544;-90
2023/06/27 02:24:32;;;;;;;7.82;5.22;;;;;;;19.09;100.00;98296.72;2582289;28;20061;-92
2023/06/27 02:25:47;;;;;;;9.75;5.35;;;;;;;18.96;100.00;98290.47;2581529;28;20050;-88
2023/06/27 02:27:03;;;;;;;7.00;5.30;;;;;;;18.84;100.00;98300.06;2587329;28;20129;-91
2023/06/27 02:28:19;;;;;;;7.07;5.22;;;;;;;19.05;100.00;98303.16;2586272;28;20540;-90
2023/06/27 02:29:34;;;;;;;7.35;5.32;;;;;;;19.01;100.00;98307.81;2582674;28;20087;-92
2023/06/27 02:30:50;;;;;;;5.97;5.13;;;;;;;18.82;100.00;98299.31;2582825;28;20057;-91
2023/06/27 02:32:06;;;;;;;6.55;4.97;;;;;;;18.94;100.00;98311.78;2584933;28;20096;-92
2023/06/27 02:33:21;;;;;;;8.30;4.97;;;;;;;19.04;100.00;98320.88;2582890;28;20092;-90
2023/06/27 02:34:37;;;;;;;7.05;5.07;;;;;;;18.94;100.00;98318.91;2584200;28;20061;-90
2023/06/27 02:35:53;;;;;;;8.18;5.07;;;;;;;19.05;100.00;98311.97;2582551;28;20693;-90
2023/06/27 02:37:08;;;;;;;6.70;4.95;;;;;;;19.02;100.00;98313.97;2581372;28;20050;-91
2023/06/27 02:38:24;;;;;;;6.57;4.82;;;;;;;18.82;100.00;98317.88;2581589;28;20081;-89
2023/06/27 02:39:39;;;;;;;7.13;4.78;;;;;;;18.97;100.00;98313.38;2581931;28;20222;-89
2023/06/27 02:40:55;;;;;;;9.05;5.07;;;;;;;18.92;100.00;98317.16;2583066;28;20054;-91
2023/06/27 02:42:10;;;;;;;5.97;5.05;;;;;;;18.96;100.00;98323.13;2584301;28;20050;-90
2023/06/27 02:43:26;;;;;;;7.65;5.25;;;;;;;18.90;100.00;98326.19;2583245;28;20138;-91
2023/06/27 02:44:41;;;;;;;7.53;4.97;;;;;;;18.88;100.00;98322.81;2581664;28;20054;-91
2023/06/27 02:45:57;;;;;;;8.77;5.05;;;;;;;19.01;100.00;98328.19;2583393;28;20053;-90
2023/06/27 02:47:12;;;;;;;6.90;4.60;;;;;;;18.92;100.00;98326.94;2582074;28;20522;-90
2023/06/27 02:48:28;;;;;;;6.95;4.70;;;;;;;18.73;100.00;98328.13;2583005;28;20069;-90
2023/06/27 02:49:44;;;;;;;6.82;5.13;;;;;;;18.87;100.00;98332.53;2583699;28;20050;-90
2023/06/27 02:50:59;;;;;;;6.90;4.90;;;;;;;18.92;100.00;98326.94;2582048;28;20053;-91
2023/06/27 02:52:14;;;;;;;7.43;5.18;;;;;;;19.04;100.00;98333.28;2582474;28;20046;-92
2023/06/27 02:53:30;;;;;;;8.48;5.18;;;;;;;19.08;100.00;98334.81;2580979;28;20069;-90
2023/06/27 02:54:48;;;;;;;5.75;4.80;;;;;;;19.04;100.00;98335.94;2582842;28;20473;-91
2023/06/27 02:56:04;;;;;;;7.55;4.47;;;;;;;18.85;100.00;98339.75;2581499;28;20051;-89
2023/06/27 02:57:20;;;;;;;5.65;4.53;;;;;;;18.83;100.00;98332.84;2582860;28;20066;-90
2023/06/27 02:58:35;;;;;;;6.97;4.70;;;;;;;18.79;100.00;98334.84;2582132;28;20143;-90
2023/06/27 02:59:51;;;;;;;5.82;4.80;;;;;;;18.87;100.00;98337.00;2584391;28;20615;-90
2023/06/27 03:01:07;;;;;;;9.50;4.65;;;;;;;18.81;100.00;98338.25;2584119;28;20069;-91
2023/06/27 03:02:22;;;;;;;6.05;4.38;;;;;;;18.73;100.00;98343.19;2584413;28;20046;-91
2023/06/27 03:03:38;;;;;;;6.78;4.70;;;;;;;18.49;100.00;98344.63;2582918;28;20039;-90
2023/06/27 03:04:53;;;;;;;8.50;4.60;;;;;;;18.71;100.00;98339.78;2583230;28;20046;-91
2023/06/27 03:06:09;;;;;;;6.40;4.32;;;;;;;18.68;100.00;98339.97;2582789;28;20057;-91
2023/06/27 03:07:25;;;;;;;7.40;4.47;;;;;;;18.70;100.00;98332.78;2584617;28;20085;-91
2023/06/27 03:08:40;;;;;;;6.82;4.60;;;;;;;18.73;100.00;98340.53;2582443;28;20141;-91
2023/06/27 03:09:55;;;;;;;6.35;4.40;;;;;;;18.62;100.00;98335.91;2583355;28;20103;-92
2023/06/27 03:11:11;;;;;;;5.68;4.38;;;;;;;18.57;100.00;98336.19;2582031;28;20688;-91
2023/06/27 03:12:27;;;;;;;6.93;4.22;;;;;;;18.67;100.00;98339.13;2582611;28;20057;-92
2023/06/27 03:13:42;;;;;;;5.93;4.13;;;;;;;18.60;100.00;98340.47;2582515;28;20053;-90
2023/06/27 03:14:58;;;;;;;5.95;3.95;;;;;;;18.53;100.00;98345.28;2584009;28;20501;-91
2023/06/27 03:16:14;;;;;;;6.28;4.28;;;;;;;18.42;100.00;98347.75;2581509;28;20042;-91
2023/06/27 03:17:30;;;;;;;6.35;4.53;;;;;;;18.23;100.00;98351.56;2581341;28;20049;-91
2023/06/27 03:18:46;;;;;;;8.43;3.97;;;;;;;18.33;100.00;98349.19;2581569;28;20053;-92
2023/06/27 03:20:03;;;;;;;7.20;4.32;;;;;;;18.38;100.00;98355.03;2582925;28;20046;-91
2023/06/27 03:21:19;;;;;;;5.95;4.05;;;;;;;18.32;100.00;98355.44;2584221;28;20050;-91
2023/06/27 03:22:35;;;;;;;6.15;4.30;;;;;;;18.29;100.00;98363.53;2583741;28;20553;-91
2023/06/27 03:23:50;;;;;;;6.07;4.03;;;;;;;18.18;100.00;98354.47;2582324;28;20500;-91
2023/06/27 03:25:10;;;;;;;5.95;3.80;;;;;;;18.21;100.00;98361.38;2583858;28;20068;-90
2023/06/27 03:26:27;;;;;;;4.53;3.67;;;;;;;18.00;100.00;98369.66;2581956;28;20514;-91
2023/06/27 03:27:43;;;;;;;5.97;4.57;;;;;;;18.02;100.00;98364.25;2582040;28;20081;-91
2023/06/27 03:28:59;;;;;;;4.55;3.92;;;;;;;18.14;100.00;98363.53;2581535;28;20057;-90
2023/06/27 03:30:14;;;;;;;7.45;4.00;;;;;;;18.07;100.00;98370.16;2583727;28;20132;-91
2023/06/27 03:31:30;;;;;;;7.40;3.80;;;;;;;18.09;100.00;98365.63;2583032;28;20410;-90
2023/06/27 03:32:45;;;;;;;8.20;3.70;;;;;;;18.04;100.00;98365.88;2583816;28;20073;-91
2023/06/27 03:34:02;;;;;;;6.43;3.75;;;;;;;18.14;100.00;98365.34;2587061;28;20054;-92
2023/06/27 03:35:17;;;;;;;7.13;4.18;;;;;;;18.25;100.00;98362.91;2585128;28;20058;-91
2023/06/27 03:36:33;;;;;;;6.18;4.15;;;;;;;18.14;100.00;98363.53;2583199;28;20509;-92
2023/06/27 03:37:50;;;;;;;7.40;4.20;;;;;;;18.06;100.00;98371.94;2584064;28;20069;-91
2023/06/27 03:39:07;;;;;;;6.93;4.05;;;;;;;17.99;100.00;98372.38;2581495;28;20490;-91
2023/06/27 03:40:22;;;;;;;5.50;4.32;;;;;;;17.88;100.00;98379.19;2581721;28;20131;-92
2023/06/27 03:41:38;;;;;;;6.25;4.45;;;;;;;17.81;100.00;98374.31;2581457;28;20402;-92
2023/06/27 03:42:55;;;;;;;6.22;4.22;;;;;;;17.77;100.00;98376.31;2583178;28;20054;-91
2023/06/27 03:44:11;;;;;;;6.10;4.32;;;;;;;17.80;100.00;98370.84;2583758;28;20129;-91
2023/06/27 03:45:26;;;;;;;5.90;3.97;;;;;;;17.87;100.00;98374.81;2581377;28;20806;-91
2023/06/27 03:46:42;;;;;;;5.43;4.35;;;;;;;17.92;100.00;98372.75;2583448;28;20086;-90
2023/06/27 03:47:57;;;;;;;6.05;4.15;;;;;;;17.93;100.00;98371.81;2582194;28;20084;-91
2023/06/27 03:49:13;;;;;;;5.60;4.13;;;;;;;17.95;100.00;98374.38;2583591;28;20101;-90
2023/06/27 03:50:29;;;;;;;9.32;4.40;;;;;;;17.95;100.00;98373.50;2582998;28;20046;-92
2023/06/27 03:51:45;;;;;;;7.15;3.85;;;;;;;18.07;100.00;98376.28;2582783;28;20058;-91
2023/06/27 03:53:01;;;;;;;6.60;4.15;;;;;;;18.20;100.00;98371.13;2584991;28;20534;-91
2023/06/27 03:54:16;;;;;;;7.95;4.15;;;;;;;18.30;100.00;98363.47;2584135;28;20093;-90
2023/06/27 03:55:33;;;;;;;7.72;4.10;;;;;;;18.20;100.00;98373.78;2582961;28;20053;-90
2023/06/27 03:56:48;;;;;;;5.95;4.20;;;;;;;18.40;100.00;98374.34;2583698;28;20054;-92
2023/06/27 03:58:04;;;;;;;7.38;4.18;;;;;;;18.55;100.00;98382.31;2584134;28;20060;-92
2023/06/27 03:59:21;;;;;;;9.68;4.00;;;;;;;18.55;100.00;98387.59;2585464;28;20076;-91
2023/06/27 04:00:37;;;;;;;6.25;3.85;;;;;;;18.69;100.00;98390.25;2584604;28;20046;-90
2023/06/27 04:01:52;;;;;;;6.03;3.60;;;;;;;18.70;100.00;98381.34;2582853;28;20140;-90
2023/06/27 04:03:08;;;;;;;4.25;3.80;;;;;;;18.61;100.00;98388.06;2583909;28;20097;-91
2023/06/27 04:04:23;;;;;;;6.50;4.00;;;;;;;18.61;100.00;98381.94;2583898;28;20054;-90
2023/06/27 04:05:39;;;;;;;5.13;3.88;;;;;;;18.66;100.00;98374.53;2584464;28;20119;-89
2023/06/27 04:06:54;;;;;;;7.88;4.28;;;;;;;18.66;100.00;98371.88;2584767;28;20057;-91
2023/06/27 04:08:10;;;;;;;7.72;4.05;;;;;;;18.79;100.00;98369.34;2582750;28;20047;-91
2023/06/27 04:09:26;;;;;;;4.45;3.80;;;;;;;18.77;100.00;98374.72;2585746;28;20046;-91
2023/06/27 04:10:42;;;;;;;5.07;4.00;;;;;;;18.81;100.00;98380.69;2583536;28;20058;-90
2023/06/27 04:11:59;;;;;;;9.50;5.00;;;;;;;18.77;100.00;98377.38;2583065;28;20053;-91
2023/06/27 04:13:15;;;;;;;6.85;4.25;;;;;;;18.81;100.00;98388.66;2585266;28;20565;-90
2023/06/27 04:14:31;;;;;;;8.75;4.20;;;;;;;18.88;100.00;98381.16;2583343;28;20581;-90
2023/06/27 04:15:46;;;;;;;5.85;4.00;;;;;;;18.94;100.00;98390.53;2582570;28;20045;-89
2023/06/27 04:17:02;;;;;;;6.45;4.30;;;;;;;18.84;100.00;98393.75;2581939;28;20054;-91
2023/06/27 04:18:17;;;;;;;4.90;4.00;;;;;;;18.93;100.00;98397.63;2584073;28;20050;-89
2023/06/27 04:19:33;;;;;;;6.38;4.25;;;;;;;18.92;100.00;98398.56;2583328;28;20109;-89
2023/06/27 04:20:49;;;;;;;10.40;4.18;;;;;;;18.99;100.00;98399.91;2585393;28;20545;-91
2023/06/27 04:22:04;;;;;;;5.85;3.85;;;;;;;18.94;100.00;98395.84;2584797;28;20413;-89
2023/06/27 04:23:20;;;;;;;6.28;4.18;;;;;;;19.06;100.00;98387.09;2583076;28;20070;-90
2023/06/27 04:24:36;;;;;;;7.15;4.30;;;;;;;18.67;100.00;98392.16;2584811;28;20049;-89
2023/06/27 04:26:05;;;;;;;5.22;4.47;;;;;;;18.92;100.00;98395.91;2583985;28;20057;-90
2023/06/27 04:27:21;;;;;;;5.38;4.25;;;;;;;18.70;100.00;98391.94;2583657;28;20049;-89
2023/06/27 04:28:37;;;;;;;5.00;4.03;;;;;;;19.05;100.00;98388.91;2584517;28;20120;-89
2023/06/27 04:29:53;;;;;;;5.20;4.13;;;;;;;19.10;100.00;98393.06;2584047;28;20524;-90
2023/06/27 04:31:08;;;;;;;6.05;4.18;;;;;;;18.81;100.00;98390.44;2584824;28;20340;-90
2023/06/27 04:32:24;;;;;;;9.00;4.40;;;;;;;18.70;100.00;98383.16;2585563;28;20054;-90
2023/06/27 04:33:40;;;;;;;7.93;4.10;;;;;;;18.73;100.00;98397.09;2583522;28;20584;-91
2023/06/27 04:34:57;;;;;;;7.85;3.80;;;;;;;18.80;100.00;98391.38;2584143;28;20509;-90
2023/06/27 04:36:15;;;;;;;9.30;4.15;;;;;;;18.82;100.00;98394.78;2584287;28;20050;-89
2023/06/27 04:37:32;;;;;;;5.15;4.18;;;;;;;18.70;100.00;98399.91;2583639;28;20050;-89
2023/06/27 04:38:48;;;;;;;6.28;3.65;;;;;;;18.68;100.00;98393.84;2583433;28;20084;-88
2023/06/27 04:40:04;;;;;;;6.78;4.00;;;;;;;18.87;100.00;98395.38;2585404;28;21016;-90
2023/06/27 04:41:20;;;;;;;6.93;3.97;;;;;;;18.70;100.00;98391.13;2585847;28;20461;-89
2023/06/27 04:42:35;;;;;;;6.47;3.80;;;;;;;18.84;100.00;98393.75;2582761;28;20082;-88
2023/06/27 04:43:51;;;;;;;5.55;3.85;;;;;;;18.78;100.00;98386.16;2583492;28;20042;-89
2023/06/27 04:45:07;;;;;;;4.25;2.92;;;;;;;18.57;100.00;98397.19;2582562;28;20052;-88
2023/06/27 04:46:26;;;;;;;7.57;3.92;;;;;;;18.40;100.00;98390.25;2587235;28;20054;-88
2023/06/27 04:47:42;;;;;;;5.88;3.38;;;;;;;18.38;100.00;98396.63;2586262;28;20046;-87
2023/06/27 04:48:58;;;;;;;7.63;3.35;;;;;;;18.54;100.00;98407.09;2583703;28;20494;-90
2023/06/27 04:50:18;;;;;;;4.47;3.42;;;;;;;18.61;100.00;98403.16;2583523;28;20060;-88
2023/06/27 04:51:33;;;;;;;5.05;3.60;;;;;;;18.81;100.00;98404.56;2582740;28;20137;-88
2023/06/27 04:52:49;;;;;;;6.93;3.78;;;;;;;18.85;100.00;98402.53;2584568;28;20050;-88
2023/06/27 04:54:04;;;;;;;5.80;3.70;;;;;;;18.93;100.00;98400.28;2582072;28;20061;-89
2023/06/27 04:55:20;;;;;;;5.90;3.85;;;;;;;19.02;100.00;98398.88;2583697;28;20050;-88
2023/06/27 04:56:36;;;;;;;5.93;4.00;;;;;;;19.02;100.00;98399.72;2583020;28;20520;-88
2023/06/27 04:57:51;;;;;;;7.72;3.80;;;;;;;18.84;100.00;98396.41;2583831;28;20061;-89
2023/06/27 04:59:07;;;;;;;4.53;3.35;;;;;;;18.68;100.00;98395.66;2582672;28;20046;-88
2023/06/27 05:00:23;;;;;;;7.63;3.50;;;;;;;18.78;100.00;98410.91;2583936;28;20128;-87
2023/06/27 05:01:38;;;;;;;3.75;3.15;;;;;;;18.91;100.00;98402.19;2584492;28;20065;-88
2023/06/27 05:02:54;;;;;;;3.13;2.80;;;;;;;18.87;100.00;98411.28;2585289;28;20050;-86
2023/06/27 05:04:09;;;;;;;8.20;3.15;;;;;;;18.83;100.00;98415.94;2584590;28;20057;-87
2023/06/27 05:05:32;;;;;;;5.22;3.10;;;;;;;19.07;100.00;98418.03;2583089;28;20046;-88
2023/06/27 05:06:48;;;;;;;5.85;2.75;;;;;;;18.81;100.00;98409.00;2584575;28;20050;-88
2023/06/27 05:08:04;;;;;;;8.18;2.80;;;;;;;19.03;100.00;98413.84;2584284;28;20055;-88
2023/06/27 05:09:19;;;;;;;6.22;2.88;;;;;;;18.69;100.00;98413.28;2587915;28;20054;-87
2023/06/27 05:10:35;;;;;;;5.22;2.75;;;;;;;18.80;100.00;98412.59;2586766;28;20054;-89
2023/06/27 05:11:51;;;;;;;4.28;2.88;;;;;;;19.09;100.00;98412.59;2583526;28;20089;-88
2023/06/27 05:13:06;;;;;;;4.38;2.50;;;;;;;19.08;100.00;98418.84;2581888;28;20046;-88
2023/06/27 05:14:22;;;;;;;5.22;3.13;;;;;;;19.04;100.00;98419.06;2584397;28;20058;-87
2023/06/27 05:15:37;;;;;;;4.53;2.88;;;;;;;19.14;100.00;98421.97;2584862;28;20057;-87
2023/06/27 05:16:53;;;;;;;4.75;3.20;;;;;;;19.19;100.00;98424.34;2584116;28;20046;-87
2023/06/27 05:18:08;;;;;;;6.32;2.72;;;;;;;19.10;100.00;98419.59;2582523;28;20097;-87
2023/06/27 05:19:24;;;;;;;4.22;2.78;;;;;;;18.88;100.00;98428.91;2583393;28;20054;-87
2023/06/27 05:20:40;;;;;;;5.57;2.80;;;;;;;19.04;100.00;98423.50;2585313;28;20046;-87
2023/06/27 05:21:56;;;;;;;5.22;3.30;;;;;;;19.00;100.00;98417.56;2583937;28;20129;-87
2023/06/27 05:23:11;;;;;;;5.40;3.05;;;;;;;19.17;100.00;98420.94;2584780;28;20128;-87
2023/06/27 05:24:27;;;;;;;4.18;2.92;;;;;;;19.08;100.00;98426.81;2581807;28;20050;-87
2023/06/27 05:25:42;;;;;;;4.03;2.65;;;;;;;19.12;100.00;98423.88;2583854;28;20049;-86
2023/06/27 05:26:58;;;;;;;6.50;2.70;;;;;;;19.04;100.00;98424.38;2584549;28;20488;-86
2023/06/27 05:28:14;;;;;;;5.53;2.70;;;;;;;19.08;100.00;98427.69;2582539;28;20493;-88
2023/06/27 05:29:29;;;;;;;5.85;3.38;;;;;;;19.14;100.00;98421.97;2583102;28;20052;-87
2023/06/27 05:30:45;;;;;;;4.13;3.00;;;;;;;18.95;100.00;98424.91;2584805;28;20517;-88
2023/06/27 05:32:00;;;;;;;5.43;3.28;;;;;;;18.97;100.00;98430.97;2583699;28;20470;-88
2023/06/27 05:33:16;;;;;;;4.30;2.70;;;;;;;18.95;100.00;98432.84;2584010;28;20045;-88
2023/06/27 05:34:31;;;;;;;5.05;2.85;;;;;;;18.78;100.00;98436.56;2583593;28;20054;-90
2023/06/27 05:35:47;;;;;;;3.92;2.47;;;;;;;18.88;100.00;98432.41;2584408;28;20045;-87
2023/06/27 05:37:03;;;;;;;4.43;2.80;;;;;;;18.78;100.00;98426.81;2583443;28;20120;-88
2023/06/27 05:38:18;;;;;;;5.13;3.22;;;;;;;18.63;100.00;98428.59;2585159;28;20050;-88
2023/06/27 05:39:34;;;;;;;6.88;3.20;;;;;;;18.68;100.00;98425.66;2583920;28;20061;-89
2023/06/27 05:40:49;;;;;;;5.30;3.20;;;;;;;18.64;100.00;98426.81;2583093;28;20054;-88
2023/06/27 05:42:05;;;;;;;5.80;2.85;;;;;;;18.33;100.00;98426.88;2584003;28;20049;-87
2023/06/27 05:43:21;;;;;;;7.40;3.63;;;;;;;18.69;100.00;98434.50;2582131;28;20053;-87
2023/06/27 05:44:37;;;;;;;4.35;3.20;;;;;;;18.89;100.00;98433.25;2583595;28;20096;-87
2023/06/27 05:45:52;;;;;;;7.43;2.80;;;;;;;18.60;100.00;98443.88;2585051;28;20100;-87
2023/06/27 05:47:08;;;;;;;5.43;3.25;;;;;;;18.66;100.00;98442.66;2584320;28;20105;-86
2023/06/27 05:48:23;;;;;;;5.25;2.95;;;;;;;18.71;100.00;98435.25;2582673;28;20091;-87
2023/06/27 05:49:39;;;;;;;3.63;2.97;;;;;;;18.83;100.00;98438.94;2584939;28;20105;-86
2023/06/27 05:50:55;;;;;;;5.97;3.25;;;;;;;18.99;100.00;98439.69;2582668;28;20504;-87
2023/06/27 05:52:10;;;;;;;4.68;3.58;;;;;;;18.84;100.00;98432.69;2583709;28;20061;-86
2023/06/27 05:53:25;;;;;;;6.13;3.65;;;;;;;18.59;100.00;98443.00;2582072;28;20069;-87
2023/06/27 05:54:41;;;;;;;4.95;3.20;;;;;;;18.64;100.00;98450.69;2584044;28;20445;-87
2023/06/27 05:55:57;;;;;;;5.75;3.28;;;;;;;18.54;100.00;98453.06;2584140;28;20104;-86